Pink Coral — 9HPY9 — position and weather

sailwx.info

Track history (hours):
 
Tides and Currents Weather Stations Pressure Air Temp Water Temp Dewpoint Dewpoint Depression Visibility Wind Speed Wind Dir Waves Ship Positions

Pink Coral

Last reported at 2017-Jan-15 14:31 UTC. Time now 2017-Jan-19 06:44 UTC.
Position N 44°20' E 037°43'.

Length 183 m; draft 8.6 m.

Type: Tanker. MMSI: 249344000.

Date/timePositionNaut miles runAvg speedWind from/ knotsBaromVisibWave heightAir tempDewpointWater temp
2017-Jan-15 14:31N 44°20' E 037°43'  
2017-Jan-10 10:24N 39°44' E 025°50'12113.1
2017-Jan-10 01:11N 37°57' E 024°38'398 8.9
2017-Jan-08 04:33N 37°33' E 016°16'1312.7
2017-Jan-08 03:32N 37°40' E 016°02'1312.9
2017-Jan-08 02:33N 37°46' E 015°48'1313.1
2017-Jan-08 01:33N 37°53' E 015°34'1414.6
2017-Jan-08 00:34N 38°08' E 015°34'1111.4
2017-Jan-07 23:33N 38°18' E 015°40'1313.4
2017-Jan-07 22:34N 38°30' E 015°35'1413.6
2017-Jan-07 21:33N 38°43' E 015°28'1413.4
2017-Jan-07 20:33N 38°55' E 015°21'1313.2
2017-Jan-07 19:32N 39°04' E 015°07'34512.8
2017-Jan-06 16:33N 43°01' E 009°35'1413.6
2017-Jan-06 15:33N 43°14' E 009°31'1413.6
2017-Jan-06 14:34N 43°27' E 009°26'1313.3
2017-Jan-06 13:33N 43°40' E 009°21'1413.5
2017-Jan-06 12:33N 43°52' E 009°11'1313.1
2017-Jan-06 11:33N 44°03' E 009°01'1313.3
2017-Jan-06 10:33N 44°14' E 008°51'1110.6
2017-Jan-06 09:33N 44°24' E 008°47'2 2.1
2017-Jan-06 08:25N 44°25' E 008°50'0 0.0
2017-Jan-06 07:28N 44°25' E 008°50'0 0.0
2017-Jan-06 06:28N 44°25' E 008°50'0 0.0
2017-Jan-06 05:28N 44°25' E 008°50'0 0.0
2017-Jan-06 04:28N 44°25' E 008°50'0 0.0
2017-Jan-06 03:28N 44°25' E 008°50'0 0.0
2017-Jan-06 02:28N 44°25' E 008°50'0 0.0
2017-Jan-06 01:31N 44°25' E 008°50'0 0.0
2017-Jan-06 00:31N 44°25' E 008°50'0 0.0
2017-Jan-05 23:31N 44°25' E 008°50'0 0.0
2017-Jan-05 22:31N 44°25' E 008°50'0 0.0
2017-Jan-05 21:31N 44°25' E 008°50'0 0.0
2017-Jan-05 20:31N 44°25' E 008°50'0 0.0
2017-Jan-05 19:19N 44°25' E 008°50'0 0.0
2017-Jan-05 18:22N 44°25' E 008°50'0 0.0
2017-Jan-05 17:25N 44°25' E 008°50'0 0.0
2017-Jan-05 16:25N 44°25' E 008°50'0 0.0
2017-Jan-05 15:25N 44°25' E 008°50'  
Track history (hours):
 
Tides and Currents Weather Stations Pressure Air Temp Water Temp Dewpoint Dewpoint Depression Visibility Wind Speed Wind Dir Waves Ship Positions

Pink Coral

Last reported at 2017-Jan-15 14:31 UTC. Time now 2017-Jan-19 06:44 UTC.
Position N 44°20' E 037°43'.

Length 183 m; draft 8.6 m.

Type: Tanker. MMSI: 249344000.

Date/timePositionNaut miles runAvg speedWind from/ knotsBaromVisibWave heightAir tempDewpointWater temp
2017-Jan-15 14:31N 44°20' E 037°43'  
2017-Jan-10 10:24N 39°44' E 025°50'12113.1
2017-Jan-10 01:11N 37°57' E 024°38'398 8.9
2017-Jan-08 04:33N 37°33' E 016°16'1312.7
2017-Jan-08 03:32N 37°40' E 016°02'1312.9
2017-Jan-08 02:33N 37°46' E 015°48'1313.1
2017-Jan-08 01:33N 37°53' E 015°34'1414.6
2017-Jan-08 00:34N 38°08' E 015°34'1111.4
2017-Jan-07 23:33N 38°18' E 015°40'1313.4
2017-Jan-07 22:34N 38°30' E 015°35'1413.6
2017-Jan-07 21:33N 38°43' E 015°28'1413.4
2017-Jan-07 20:33N 38°55' E 015°21'1313.2
2017-Jan-07 19:32N 39°04' E 015°07'34512.8
2017-Jan-06 16:33N 43°01' E 009°35'1413.6
2017-Jan-06 15:33N 43°14' E 009°31'1413.6
2017-Jan-06 14:34N 43°27' E 009°26'1313.3
2017-Jan-06 13:33N 43°40' E 009°21'1413.5
2017-Jan-06 12:33N 43°52' E 009°11'1313.1
2017-Jan-06 11:33N 44°03' E 009°01'1313.3
2017-Jan-06 10:33N 44°14' E 008°51'1110.6
2017-Jan-06 09:33N 44°24' E 008°47'2 2.1
2017-Jan-06 08:25N 44°25' E 008°50'0 0.0
2017-Jan-06 07:28N 44°25' E 008°50'0 0.0
2017-Jan-06 06:28N 44°25' E 008°50'0 0.0
2017-Jan-06 05:28N 44°25' E 008°50'0 0.0
2017-Jan-06 04:28N 44°25' E 008°50'0 0.0
2017-Jan-06 03:28N 44°25' E 008°50'0 0.0
2017-Jan-06 02:28N 44°25' E 008°50'0 0.0
2017-Jan-06 01:31N 44°25' E 008°50'0 0.0
2017-Jan-06 00:31N 44°25' E 008°50'0 0.0
2017-Jan-05 23:31N 44°25' E 008°50'0 0.0
2017-Jan-05 22:31N 44°25' E 008°50'0 0.0
2017-Jan-05 21:31N 44°25' E 008°50'0 0.0
2017-Jan-05 20:31N 44°25' E 008°50'0 0.0
2017-Jan-05 19:19N 44°25' E 008°50'0 0.0
2017-Jan-05 18:22N 44°25' E 008°50'0 0.0
2017-Jan-05 17:25N 44°25' E 008°50'0 0.0
2017-Jan-05 16:25N 44°25' E 008°50'0 0.0
2017-Jan-05 15:25N 44°25' E 008°50'  

Dump ship's entire track history